sensor_id;sensor_type;location;lat;lon;timestamp;P1;durP1;ratioP1;P2;durP2;ratioP2
76786;SDS011;65739;51.482;5.702;2023-05-29T00:00:13;11.35;;;6.20;;
76786;SDS011;65739;51.482;5.702;2023-05-29T00:02:42;13.85;;;5.70;;
76786;SDS011;65739;51.482;5.702;2023-05-29T00:05:09;12.00;;;6.10;;
76786;SDS011;65739;51.482;5.702;2023-05-29T00:07:36;13.35;;;6.07;;
76786;SDS011;65739;51.482;5.702;2023-05-29T00:10:02;18.58;;;6.28;;
76786;SDS011;65739;51.482;5.702;2023-05-29T00:12:29;11.55;;;5.20;;
76786;SDS011;65739;51.482;5.702;2023-05-29T00:14:54;10.90;;;5.93;;
76786;SDS011;65739;51.482;5.702;2023-05-29T00:17:20;16.40;;;5.72;;
76786;SDS011;65739;51.482;5.702;2023-05-29T00:19:46;14.25;;;5.18;;
76786;SDS011;65739;51.482;5.702;2023-05-29T00:22:12;13.30;;;5.57;;
76786;SDS011;65739;51.482;5.702;2023-05-29T00:24:37;15.88;;;5.25;;
76786;SDS011;65739;51.482;5.702;2023-05-29T00:27:03;15.65;;;4.93;;
76786;SDS011;65739;51.482;5.702;2023-05-29T00:29:29;14.10;;;4.57;;
76786;SDS011;65739;51.482;5.702;2023-05-29T00:31:54;13.07;;;5.63;;
76786;SDS011;65739;51.482;5.702;2023-05-29T00:34:21;14.13;;;4.80;;
76786;SDS011;65739;51.482;5.702;2023-05-29T00:36:48;13.20;;;4.70;;
76786;SDS011;65739;51.482;5.702;2023-05-29T00:39:14;23.60;;;4.43;;
76786;SDS011;65739;51.482;5.702;2023-05-29T00:41:40;16.48;;;4.18;;
76786;SDS011;65739;51.482;5.702;2023-05-29T00:44:05;13.32;;;3.80;;
76786;SDS011;65739;51.482;5.702;2023-05-29T00:46:31;17.08;;;4.13;;
76786;SDS011;65739;51.482;5.702;2023-05-29T00:48:58;14.57;;;3.65;;
76786;SDS011;65739;51.482;5.702;2023-05-29T00:51:25;13.05;;;3.78;;
76786;SDS011;65739;51.482;5.702;2023-05-29T00:53:52;17.27;;;3.78;;
76786;SDS011;65739;51.482;5.702;2023-05-29T00:56:19;13.30;;;3.33;;
76786;SDS011;65739;51.482;5.702;2023-05-29T00:58:46;23.67;;;3.78;;
76786;SDS011;65739;51.482;5.702;2023-05-29T01:01:17;14.57;;;3.63;;
76786;SDS011;65739;51.482;5.702;2023-05-29T01:03:43;12.80;;;3.08;;
76786;SDS011;65739;51.482;5.702;2023-05-29T01:06:10;14.55;;;2.83;;
76786;SDS011;65739;51.482;5.702;2023-05-29T01:08:36;8.77;;;2.97;;
76786;SDS011;65739;51.482;5.702;2023-05-29T01:11:07;13.43;;;3.00;;
76786;SDS011;65739;51.482;5.702;2023-05-29T01:13:41;9.25;;;3.03;;
76786;SDS011;65739;51.482;5.702;2023-05-29T01:16:12;11.50;;;3.40;;
76786;SDS011;65739;51.482;5.702;2023-05-29T01:21:53;13.65;;;3.17;;
76786;SDS011;65739;51.482;5.702;2023-05-29T01:27:39;12.70;;;2.83;;
76786;SDS011;65739;51.482;5.702;2023-05-29T01:30:07;16.30;;;3.65;;
76786;SDS011;65739;51.482;5.702;2023-05-29T01:32:34;12.35;;;2.72;;
76786;SDS011;65739;51.482;5.702;2023-05-29T01:35:00;13.07;;;3.30;;
76786;SDS011;65739;51.482;5.702;2023-05-29T01:37:25;15.05;;;3.30;;
76786;SDS011;65739;51.482;5.702;2023-05-29T01:39:52;14.68;;;3.45;;
76786;SDS011;65739;51.482;5.702;2023-05-29T01:42:18;21.98;;;3.03;;
76786;SDS011;65739;51.482;5.702;2023-05-29T01:44:44;13.73;;;2.75;;
76786;SDS011;65739;51.482;5.702;2023-05-29T01:47:11;13.52;;;3.03;;
76786;SDS011;65739;51.482;5.702;2023-05-29T01:49:37;14.95;;;3.47;;
76786;SDS011;65739;51.482;5.702;2023-05-29T01:52:05;15.65;;;2.97;;
76786;SDS011;65739;51.482;5.702;2023-05-29T01:54:31;13.65;;;3.33;;
76786;SDS011;65739;51.482;5.702;2023-05-29T01:56:59;20.35;;;3.10;;
76786;SDS011;65739;51.482;5.702;2023-05-29T01:59:27;17.73;;;3.08;;
76786;SDS011;65739;51.482;5.702;2023-05-29T02:01:53;14.27;;;3.35;;
76786;SDS011;65739;51.482;5.702;2023-05-29T02:04:19;14.75;;;2.78;;
76786;SDS011;65739;51.482;5.702;2023-05-29T02:06:44;18.13;;;2.78;;
76786;SDS011;65739;51.482;5.702;2023-05-29T02:09:10;21.48;;;2.97;;
76786;SDS011;65739;51.482;5.702;2023-05-29T02:11:36;15.07;;;3.60;;
76786;SDS011;65739;51.482;5.702;2023-05-29T02:14:01;13.27;;;2.28;;
76786;SDS011;65739;51.482;5.702;2023-05-29T02:16:29;19.80;;;3.03;;
76786;SDS011;65739;51.482;5.702;2023-05-29T02:18:58;14.95;;;2.38;;
76786;SDS011;65739;51.482;5.702;2023-05-29T02:21:24;16.98;;;3.35;;
76786;SDS011;65739;51.482;5.702;2023-05-29T02:23:50;16.17;;;2.60;;
76786;SDS011;65739;51.482;5.702;2023-05-29T02:26:16;19.15;;;3.45;;
76786;SDS011;65739;51.482;5.702;2023-05-29T02:28:41;16.58;;;2.85;;
76786;SDS011;65739;51.482;5.702;2023-05-29T02:31:07;19.00;;;3.00;;
76786;SDS011;65739;51.482;5.702;2023-05-29T02:33:32;23.25;;;3.45;;
76786;SDS011;65739;51.482;5.702;2023-05-29T02:35:58;14.68;;;2.88;;
76786;SDS011;65739;51.482;5.702;2023-05-29T02:38:24;14.10;;;3.17;;
76786;SDS011;65739;51.482;5.702;2023-05-29T02:40:49;12.75;;;2.83;;
76786;SDS011;65739;51.482;5.702;2023-05-29T02:43:15;19.52;;;3.40;;
76786;SDS011;65739;51.482;5.702;2023-05-29T02:45:40;10.68;;;2.67;;
76786;SDS011;65739;51.482;5.702;2023-05-29T02:48:06;16.90;;;2.60;;
76786;SDS011;65739;51.482;5.702;2023-05-29T02:50:32;14.95;;;2.75;;
76786;SDS011;65739;51.482;5.702;2023-05-29T02:52:58;21.30;;;3.20;;
76786;SDS011;65739;51.482;5.702;2023-05-29T02:55:23;19.10;;;2.75;;
76786;SDS011;65739;51.482;5.702;2023-05-29T02:57:49;16.23;;;2.63;;
76786;SDS011;65739;51.482;5.702;2023-05-29T03:00:17;16.17;;;3.30;;
76786;SDS011;65739;51.482;5.702;2023-05-29T03:02:43;16.55;;;3.05;;
76786;SDS011;65739;51.482;5.702;2023-05-29T03:05:09;16.63;;;4.03;;
76786;SDS011;65739;51.482;5.702;2023-05-29T03:07:34;16.92;;;3.10;;
76786;SDS011;65739;51.482;5.702;2023-05-29T03:10:01;14.20;;;2.63;;
76786;SDS011;65739;51.482;5.702;2023-05-29T03:12:29;13.57;;;2.88;;
76786;SDS011;65739;51.482;5.702;2023-05-29T03:14:54;19.50;;;3.30;;
76786;SDS011;65739;51.482;5.702;2023-05-29T03:17:21;13.43;;;3.22;;
76786;SDS011;65739;51.482;5.702;2023-05-29T03:19:47;14.45;;;2.75;;
76786;SDS011;65739;51.482;5.702;2023-05-29T03:22:12;12.27;;;2.50;;
76786;SDS011;65739;51.482;5.702;2023-05-29T03:24:38;15.20;;;3.05;;
76786;SDS011;65739;51.482;5.702;2023-05-29T03:27:04;12.18;;;2.85;;
76786;SDS011;65739;51.482;5.702;2023-05-29T03:29:31;15.43;;;2.95;;
76786;SDS011;65739;51.482;5.702;2023-05-29T03:31:57;21.00;;;3.58;;
76786;SDS011;65739;51.482;5.702;2023-05-29T03:34:23;18.40;;;3.15;;
76786;SDS011;65739;51.482;5.702;2023-05-29T03:36:48;17.17;;;3.70;;
76786;SDS011;65739;51.482;5.702;2023-05-29T03:39:14;13.70;;;3.85;;
76786;SDS011;65739;51.482;5.702;2023-05-29T03:41:40;17.85;;;3.42;;
76786;SDS011;65739;51.482;5.702;2023-05-29T03:44:05;21.23;;;3.65;;
76786;SDS011;65739;51.482;5.702;2023-05-29T03:46:31;16.83;;;3.05;;
76786;SDS011;65739;51.482;5.702;2023-05-29T03:48:57;19.70;;;3.50;;
76786;SDS011;65739;51.482;5.702;2023-05-29T03:51:22;17.67;;;3.53;;
76786;SDS011;65739;51.482;5.702;2023-05-29T03:53:48;18.60;;;3.35;;
76786;SDS011;65739;51.482;5.702;2023-05-29T03:56:14;17.63;;;3.08;;
76786;SDS011;65739;51.482;5.702;2023-05-29T03:58:40;21.05;;;3.10;;
76786;SDS011;65739;51.482;5.702;2023-05-29T04:01:05;18.77;;;2.60;;
76786;SDS011;65739;51.482;5.702;2023-05-29T04:03:31;21.48;;;3.33;;
76786;SDS011;65739;51.482;5.702;2023-05-29T04:05:57;13.45;;;3.17;;
76786;SDS011;65739;51.482;5.702;2023-05-29T04:08:23;17.35;;;3.10;;
76786;SDS011;65739;51.482;5.702;2023-05-29T04:10:48;17.98;;;3.40;;
76786;SDS011;65739;51.482;5.702;2023-05-29T04:13:14;21.40;;;3.08;;
76786;SDS011;65739;51.482;5.702;2023-05-29T04:15:40;18.65;;;2.70;;
76786;SDS011;65739;51.482;5.702;2023-05-29T04:18:10;16.55;;;2.72;;
76786;SDS011;65739;51.482;5.702;2023-05-29T04:20:41;23.30;;;3.92;;
76786;SDS011;65739;51.482;5.702;2023-05-29T04:23:10;16.45;;;3.83;;
76786;SDS011;65739;51.482;5.702;2023-05-29T04:25:36;16.23;;;2.97;;
76786;SDS011;65739;51.482;5.702;2023-05-29T04:28:01;21.42;;;3.15;;
76786;SDS011;65739;51.482;5.702;2023-05-29T04:30:28;14.80;;;3.08;;
76786;SDS011;65739;51.482;5.702;2023-05-29T04:32:54;20.65;;;3.50;;
76786;SDS011;65739;51.482;5.702;2023-05-29T04:35:20;16.38;;;3.20;;
76786;SDS011;65739;51.482;5.702;2023-05-29T04:37:46;23.58;;;3.17;;
76786;SDS011;65739;51.482;5.702;2023-05-29T04:40:12;16.40;;;2.95;;
76786;SDS011;65739;51.482;5.702;2023-05-29T04:42:42;15.13;;;3.05;;
76786;SDS011;65739;51.482;5.702;2023-05-29T04:45:10;15.65;;;3.92;;
76786;SDS011;65739;51.482;5.702;2023-05-29T04:47:36;16.23;;;2.80;;
76786;SDS011;65739;51.482;5.702;2023-05-29T04:50:17;15.68;;;3.60;;
76786;SDS011;65739;51.482;5.702;2023-05-29T04:52:43;19.88;;;3.50;;
76786;SDS011;65739;51.482;5.702;2023-05-29T04:55:09;21.70;;;2.97;;
76786;SDS011;65739;51.482;5.702;2023-05-29T04:57:37;21.80;;;3.50;;
76786;SDS011;65739;51.482;5.702;2023-05-29T05:00:03;20.77;;;3.35;;
76786;SDS011;65739;51.482;5.702;2023-05-29T05:05:00;19.48;;;3.60;;
76786;SDS011;65739;51.482;5.702;2023-05-29T05:07:26;19.67;;;3.33;;
76786;SDS011;65739;51.482;5.702;2023-05-29T05:09:55;18.45;;;3.00;;
76786;SDS011;65739;51.482;5.702;2023-05-29T05:12:20;16.45;;;2.95;;
76786;SDS011;65739;51.482;5.702;2023-05-29T05:14:46;18.77;;;2.88;;
76786;SDS011;65739;51.482;5.702;2023-05-29T05:17:11;15.70;;;2.95;;
76786;SDS011;65739;51.482;5.702;2023-05-29T05:19:37;19.42;;;3.50;;
76786;SDS011;65739;51.482;5.702;2023-05-29T05:22:03;21.17;;;2.60;;
76786;SDS011;65739;51.482;5.702;2023-05-29T05:24:28;18.80;;;3.53;;
76786;SDS011;65739;51.482;5.702;2023-05-29T05:26:54;22.65;;;3.17;;
76786;SDS011;65739;51.482;5.702;2023-05-29T05:29:20;17.00;;;3.13;;
76786;SDS011;65739;51.482;5.702;2023-05-29T05:31:45;17.45;;;3.13;;
76786;SDS011;65739;51.482;5.702;2023-05-29T05:34:11;23.00;;;3.45;;
76786;SDS011;65739;51.482;5.702;2023-05-29T05:36:37;18.73;;;2.90;;
76786;SDS011;65739;51.482;5.702;2023-05-29T05:39:02;15.50;;;2.72;;
76786;SDS011;65739;51.482;5.702;2023-05-29T05:41:28;14.80;;;3.60;;
76786;SDS011;65739;51.482;5.702;2023-05-29T05:43:53;16.67;;;3.15;;
76786;SDS011;65739;51.482;5.702;2023-05-29T05:46:19;12.57;;;2.75;;
76786;SDS011;65739;51.482;5.702;2023-05-29T05:48:45;13.02;;;2.60;;
76786;SDS011;65739;51.482;5.702;2023-05-29T05:51:11;13.70;;;2.83;;
76786;SDS011;65739;51.482;5.702;2023-05-29T05:53:37;17.23;;;2.75;;
76786;SDS011;65739;51.482;5.702;2023-05-29T05:56:02;17.23;;;3.00;;
76786;SDS011;65739;51.482;5.702;2023-05-29T05:58:28;16.95;;;2.85;;
76786;SDS011;65739;51.482;5.702;2023-05-29T06:00:54;14.70;;;3.63;;
76786;SDS011;65739;51.482;5.702;2023-05-29T06:03:19;15.57;;;3.13;;
76786;SDS011;65739;51.482;5.702;2023-05-29T06:05:45;17.67;;;3.42;;
76786;SDS011;65739;51.482;5.702;2023-05-29T06:08:12;15.63;;;3.13;;
76786;SDS011;65739;51.482;5.702;2023-05-29T06:10:37;16.60;;;2.95;;
76786;SDS011;65739;51.482;5.702;2023-05-29T06:13:03;19.75;;;3.10;;
76786;SDS011;65739;51.482;5.702;2023-05-29T06:15:29;20.13;;;2.78;;
76786;SDS011;65739;51.482;5.702;2023-05-29T06:17:54;17.35;;;4.07;;
76786;SDS011;65739;51.482;5.702;2023-05-29T06:20:20;14.52;;;3.08;;
76786;SDS011;65739;51.482;5.702;2023-05-29T06:22:46;9.63;;;2.60;;
76786;SDS011;65739;51.482;5.702;2023-05-29T06:25:18;12.68;;;3.45;;
76786;SDS011;65739;51.482;5.702;2023-05-29T06:27:44;14.45;;;2.78;;
76786;SDS011;65739;51.482;5.702;2023-05-29T06:30:10;21.63;;;3.00;;
76786;SDS011;65739;51.482;5.702;2023-05-29T06:32:37;13.13;;;2.42;;
76786;SDS011;65739;51.482;5.702;2023-05-29T06:35:03;14.80;;;2.78;;
76786;SDS011;65739;51.482;5.702;2023-05-29T06:37:29;16.67;;;3.10;;
76786;SDS011;65739;51.482;5.702;2023-05-29T06:39:54;16.30;;;2.90;;
76786;SDS011;65739;51.482;5.702;2023-05-29T06:42:20;15.38;;;2.65;;
76786;SDS011;65739;51.482;5.702;2023-05-29T06:44:51;13.07;;;2.78;;
76786;SDS011;65739;51.482;5.702;2023-05-29T06:47:17;15.60;;;3.92;;
76786;SDS011;65739;51.482;5.702;2023-05-29T06:49:45;15.85;;;3.15;;
76786;SDS011;65739;51.482;5.702;2023-05-29T06:52:13;16.02;;;2.53;;
76786;SDS011;65739;51.482;5.702;2023-05-29T06:54:38;11.57;;;2.70;;
76786;SDS011;65739;51.482;5.702;2023-05-29T06:57:07;17.35;;;2.63;;
76786;SDS011;65739;51.482;5.702;2023-05-29T06:59:32;13.52;;;2.30;;
76786;SDS011;65739;51.482;5.702;2023-05-29T07:01:58;17.38;;;3.50;;
76786;SDS011;65739;51.482;5.702;2023-05-29T07:04:23;16.45;;;2.83;;
76786;SDS011;65739;51.482;5.702;2023-05-29T07:13:34;10.70;;;2.30;;
76786;SDS011;65739;51.482;5.702;2023-05-29T07:16:21;12.82;;;2.60;;
76786;SDS011;65739;51.482;5.702;2023-05-29T07:22:17;15.25;;;2.92;;
76786;SDS011;65739;51.482;5.702;2023-05-29T07:24:51;13.25;;;2.60;;
76786;SDS011;65739;51.482;5.702;2023-05-29T07:27:17;13.05;;;2.60;;
76786;SDS011;65739;51.482;5.702;2023-05-29T07:33:34;16.35;;;2.90;;
76786;SDS011;65739;51.482;5.702;2023-05-29T07:36:12;12.68;;;2.28;;
76786;SDS011;65739;51.482;5.702;2023-05-29T07:41:05;12.88;;;2.78;;
76786;SDS011;65739;51.482;5.702;2023-05-29T07:43:31;10.02;;;2.60;;
76786;SDS011;65739;51.482;5.702;2023-05-29T07:45:56;14.05;;;3.03;;
76786;SDS011;65739;51.482;5.702;2023-05-29T07:48:24;15.82;;;2.50;;
76786;SDS011;65739;51.482;5.702;2023-05-29T07:50:50;11.90;;;2.80;;
76786;SDS011;65739;51.482;5.702;2023-05-29T07:53:16;16.00;;;2.35;;
76786;SDS011;65739;51.482;5.702;2023-05-29T07:55:42;13.68;;;2.28;;
76786;SDS011;65739;51.482;5.702;2023-05-29T07:58:08;14.27;;;2.78;;
76786;SDS011;65739;51.482;5.702;2023-05-29T08:00:43;15.70;;;2.92;;
76786;SDS011;65739;51.482;5.702;2023-05-29T08:03:16;16.88;;;2.65;;
76786;SDS011;65739;51.482;5.702;2023-05-29T08:05:41;18.70;;;2.47;;
76786;SDS011;65739;51.482;5.702;2023-05-29T08:08:07;18.77;;;2.78;;
76786;SDS011;65739;51.482;5.702;2023-05-29T08:10:33;14.48;;;2.78;;
76786;SDS011;65739;51.482;5.702;2023-05-29T08:12:58;18.30;;;3.28;;
76786;SDS011;65739;51.482;5.702;2023-05-29T08:15:24;10.07;;;2.30;;
76786;SDS011;65739;51.482;5.702;2023-05-29T08:17:51;12.65;;;2.50;;
76786;SDS011;65739;51.482;5.702;2023-05-29T08:20:17;13.65;;;2.55;;
76786;SDS011;65739;51.482;5.702;2023-05-29T08:22:42;16.48;;;2.90;;
76786;SDS011;65739;51.482;5.702;2023-05-29T08:25:10;11.38;;;2.22;;
76786;SDS011;65739;51.482;5.702;2023-05-29T08:27:35;13.82;;;2.45;;
76786;SDS011;65739;51.482;5.702;2023-05-29T08:30:01;15.38;;;2.63;;
76786;SDS011;65739;51.482;5.702;2023-05-29T08:32:30;15.27;;;2.67;;
76786;SDS011;65739;51.482;5.702;2023-05-29T08:34:56;17.33;;;2.58;;
76786;SDS011;65739;51.482;5.702;2023-05-29T08:37:21;12.73;;;2.20;;
76786;SDS011;65739;51.482;5.702;2023-05-29T08:39:49;11.13;;;2.50;;
76786;SDS011;65739;51.482;5.702;2023-05-29T08:42:26;8.82;;;2.80;;
76786;SDS011;65739;51.482;5.702;2023-05-29T08:45:02;11.40;;;2.20;;
76786;SDS011;65739;51.482;5.702;2023-05-29T08:47:34;9.48;;;2.45;;
76786;SDS011;65739;51.482;5.702;2023-05-29T08:50:03;11.00;;;2.40;;
76786;SDS011;65739;51.482;5.702;2023-05-29T08:52:36;12.37;;;2.90;;
76786;SDS011;65739;51.482;5.702;2023-05-29T08:55:04;13.60;;;3.00;;
76786;SDS011;65739;51.482;5.702;2023-05-29T08:57:30;13.82;;;2.17;;
76786;SDS011;65739;51.482;5.702;2023-05-29T08:59:56;14.18;;;2.22;;
76786;SDS011;65739;51.482;5.702;2023-05-29T09:02:25;10.75;;;2.50;;
76786;SDS011;65739;51.482;5.702;2023-05-29T09:04:52;13.07;;;2.83;;
76786;SDS011;65739;51.482;5.702;2023-05-29T09:07:19;11.45;;;2.17;;
76786;SDS011;65739;51.482;5.702;2023-05-29T09:09:46;12.73;;;2.78;;
76786;SDS011;65739;51.482;5.702;2023-05-29T09:12:13;11.15;;;2.67;;
76786;SDS011;65739;51.482;5.702;2023-05-29T09:14:40;8.68;;;2.55;;
76786;SDS011;65739;51.482;5.702;2023-05-29T09:17:07;11.38;;;2.25;;
76786;SDS011;65739;51.482;5.702;2023-05-29T09:19:36;11.93;;;2.63;;
76786;SDS011;65739;51.482;5.702;2023-05-29T09:24:32;13.38;;;2.95;;
76786;SDS011;65739;51.482;5.702;2023-05-29T09:26:59;13.02;;;2.47;;
76786;SDS011;65739;51.482;5.702;2023-05-29T09:29:32;9.73;;;2.50;;
76786;SDS011;65739;51.482;5.702;2023-05-29T09:31:59;15.93;;;3.10;;
76786;SDS011;65739;51.482;5.702;2023-05-29T09:34:26;11.38;;;2.35;;
76786;SDS011;65739;51.482;5.702;2023-05-29T09:36:59;10.70;;;2.40;;
76786;SDS011;65739;51.482;5.702;2023-05-29T09:42:07;13.57;;;2.40;;
76786;SDS011;65739;51.482;5.702;2023-05-29T09:44:34;9.93;;;2.53;;
76786;SDS011;65739;51.482;5.702;2023-05-29T09:47:00;9.90;;;2.22;;
76786;SDS011;65739;51.482;5.702;2023-05-29T09:49:26;12.02;;;2.28;;
76786;SDS011;65739;51.482;5.702;2023-05-29T09:51:54;12.15;;;2.55;;
76786;SDS011;65739;51.482;5.702;2023-05-29T09:54:21;11.30;;;2.60;;
76786;SDS011;65739;51.482;5.702;2023-05-29T09:56:49;8.90;;;2.25;;
76786;SDS011;65739;51.482;5.702;2023-05-29T09:59:15;9.38;;;2.30;;
76786;SDS011;65739;51.482;5.702;2023-05-29T10:01:43;11.40;;;2.50;;
76786;SDS011;65739;51.482;5.702;2023-05-29T10:04:09;7.10;;;2.38;;
76786;SDS011;65739;51.482;5.702;2023-05-29T10:06:41;11.38;;;2.50;;
76786;SDS011;65739;51.482;5.702;2023-05-29T10:09:10;10.10;;;2.38;;
76786;SDS011;65739;51.482;5.702;2023-05-29T10:11:40;11.43;;;2.58;;
76786;SDS011;65739;51.482;5.702;2023-05-29T10:14:09;14.27;;;2.60;;
76786;SDS011;65739;51.482;5.702;2023-05-29T10:16:39;11.10;;;2.50;;
76786;SDS011;65739;51.482;5.702;2023-05-29T10:19:07;11.40;;;2.47;;
76786;SDS011;65739;51.482;5.702;2023-05-29T10:21:43;7.47;;;2.25;;
76786;SDS011;65739;51.482;5.702;2023-05-29T10:24:09;13.07;;;2.95;;
76786;SDS011;65739;51.482;5.702;2023-05-29T10:26:39;10.65;;;2.70;;
76786;SDS011;65739;51.482;5.702;2023-05-29T10:29:13;11.35;;;2.45;;
76786;SDS011;65739;51.482;5.702;2023-05-29T10:32:25;9.18;;;1.80;;
76786;SDS011;65739;51.482;5.702;2023-05-29T10:40:14;6.45;;;2.00;;
76786;SDS011;65739;51.482;5.702;2023-05-29T10:42:45;7.95;;;2.72;;
76786;SDS011;65739;51.482;5.702;2023-05-29T10:50:44;9.13;;;2.35;;
76786;SDS011;65739;51.482;5.702;2023-05-29T10:53:15;11.65;;;2.22;;
76786;SDS011;65739;51.482;5.702;2023-05-29T10:55:42;7.13;;;2.20;;
76786;SDS011;65739;51.482;5.702;2023-05-29T10:58:13;9.27;;;2.03;;
76786;SDS011;65739;51.482;5.702;2023-05-29T11:00:46;9.90;;;2.58;;
76786;SDS011;65739;51.482;5.702;2023-05-29T11:06:03;6.97;;;2.25;;
76786;SDS011;65739;51.482;5.702;2023-05-29T11:08:41;10.13;;;2.40;;
76786;SDS011;65739;51.482;5.702;2023-05-29T11:11:12;12.60;;;2.67;;
76786;SDS011;65739;51.482;5.702;2023-05-29T11:13:38;9.25;;;2.03;;
76786;SDS011;65739;51.482;5.702;2023-05-29T11:18:50;6.65;;;2.33;;
76786;SDS011;65739;51.482;5.702;2023-05-29T11:24:14;7.68;;;2.35;;
76786;SDS011;65739;51.482;5.702;2023-05-29T11:26:46;9.68;;;2.65;;
76786;SDS011;65739;51.482;5.702;2023-05-29T11:29:12;7.65;;;2.20;;
76786;SDS011;65739;51.482;5.702;2023-05-29T11:31:39;11.18;;;2.15;;
76786;SDS011;65739;51.482;5.702;2023-05-29T11:34:05;6.03;;;2.05;;
76786;SDS011;65739;51.482;5.702;2023-05-29T11:36:39;7.65;;;2.20;;
76786;SDS011;65739;51.482;5.702;2023-05-29T11:39:04;8.80;;;1.88;;
76786;SDS011;65739;51.482;5.702;2023-05-29T11:41:30;11.23;;;2.60;;
76786;SDS011;65739;51.482;5.702;2023-05-29T11:43:59;8.07;;;2.30;;
76786;SDS011;65739;51.482;5.702;2023-05-29T11:46:27;6.88;;;2.28;;
76786;SDS011;65739;51.482;5.702;2023-05-29T11:48:55;7.13;;;1.85;;
76786;SDS011;65739;51.482;5.702;2023-05-29T11:51:21;7.05;;;2.10;;
76786;SDS011;65739;51.482;5.702;2023-05-29T11:53:48;9.73;;;2.22;;
76786;SDS011;65739;51.482;5.702;2023-05-29T11:56:14;8.40;;;2.30;;
76786;SDS011;65739;51.482;5.702;2023-05-29T11:58:40;9.30;;;1.85;;
76786;SDS011;65739;51.482;5.702;2023-05-29T12:01:06;8.57;;;2.38;;
76786;SDS011;65739;51.482;5.702;2023-05-29T12:03:39;8.10;;;2.15;;
76786;SDS011;65739;51.482;5.702;2023-05-29T12:06:05;11.13;;;2.35;;
76786;SDS011;65739;51.482;5.702;2023-05-29T12:08:32;8.52;;;2.08;;
76786;SDS011;65739;51.482;5.702;2023-05-29T12:10:58;9.73;;;2.03;;
76786;SDS011;65739;51.482;5.702;2023-05-29T12:13:23;5.07;;;1.95;;
76786;SDS011;65739;51.482;5.702;2023-05-29T12:15:50;6.45;;;2.40;;
76786;SDS011;65739;51.482;5.702;2023-05-29T12:18:18;5.35;;;1.88;;
76786;SDS011;65739;51.482;5.702;2023-05-29T12:20:43;8.00;;;2.03;;
76786;SDS011;65739;51.482;5.702;2023-05-29T12:23:09;7.72;;;2.65;;
76786;SDS011;65739;51.482;5.702;2023-05-29T12:25:37;10.27;;;2.00;;
76786;SDS011;65739;51.482;5.702;2023-05-29T12:28:03;6.72;;;2.20;;
76786;SDS011;65739;51.482;5.702;2023-05-29T12:30:29;5.68;;;1.85;;
76786;SDS011;65739;51.482;5.702;2023-05-29T12:32:55;9.30;;;2.30;;
76786;SDS011;65739;51.482;5.702;2023-05-29T12:35:22;7.72;;;2.13;;
76786;SDS011;65739;51.482;5.702;2023-05-29T12:40:22;11.23;;;2.00;;
76786;SDS011;65739;51.482;5.702;2023-05-29T12:42:56;9.60;;;2.38;;
76786;SDS011;65739;51.482;5.702;2023-05-29T12:45:24;11.95;;;2.33;;
76786;SDS011;65739;51.482;5.702;2023-05-29T12:47:52;7.18;;;1.83;;
76786;SDS011;65739;51.482;5.702;2023-05-29T12:52:55;6.97;;;2.08;;
76786;SDS011;65739;51.482;5.702;2023-05-29T12:55:21;4.43;;;1.55;;
76786;SDS011;65739;51.482;5.702;2023-05-29T12:57:46;7.43;;;2.20;;
76786;SDS011;65739;51.482;5.702;2023-05-29T13:00:12;11.77;;;2.42;;
76786;SDS011;65739;51.482;5.702;2023-05-29T13:02:38;6.70;;;1.90;;
76786;SDS011;65739;51.482;5.702;2023-05-29T13:05:04;8.40;;;2.00;;
76786;SDS011;65739;51.482;5.702;2023-05-29T13:07:31;8.70;;;2.00;;
76786;SDS011;65739;51.482;5.702;2023-05-29T13:09:57;6.88;;;1.90;;
76786;SDS011;65739;51.482;5.702;2023-05-29T13:12:22;7.45;;;2.38;;
76786;SDS011;65739;51.482;5.702;2023-05-29T13:14:48;10.15;;;2.20;;
76786;SDS011;65739;51.482;5.702;2023-05-29T13:17:14;5.70;;;1.85;;
76786;SDS011;65739;51.482;5.702;2023-05-29T13:19:39;9.13;;;2.20;;
76786;SDS011;65739;51.482;5.702;2023-05-29T13:22:05;8.80;;;2.20;;
76786;SDS011;65739;51.482;5.702;2023-05-29T13:24:30;7.15;;;1.90;;
76786;SDS011;65739;51.482;5.702;2023-05-29T13:26:56;8.95;;;2.10;;
76786;SDS011;65739;51.482;5.702;2023-05-29T13:29:21;8.50;;;2.35;;
76786;SDS011;65739;51.482;5.702;2023-05-29T13:31:47;8.40;;;1.85;;
76786;SDS011;65739;51.482;5.702;2023-05-29T13:34:12;8.18;;;2.08;;
76786;SDS011;65739;51.482;5.702;2023-05-29T13:36:38;8.02;;;2.45;;
76786;SDS011;65739;51.482;5.702;2023-05-29T13:39:04;8.75;;;2.20;;
76786;SDS011;65739;51.482;5.702;2023-05-29T13:41:30;6.13;;;2.20;;
76786;SDS011;65739;51.482;5.702;2023-05-29T13:43:56;6.32;;;1.90;;
76786;SDS011;65739;51.482;5.702;2023-05-29T13:46:22;6.90;;;2.22;;
76786;SDS011;65739;51.482;5.702;2023-05-29T13:48:47;9.02;;;1.92;;
76786;SDS011;65739;51.482;5.702;2023-05-29T13:51:13;7.47;;;2.10;;
76786;SDS011;65739;51.482;5.702;2023-05-29T13:53:38;8.07;;;2.33;;
76786;SDS011;65739;51.482;5.702;2023-05-29T13:56:04;7.63;;;2.53;;
76786;SDS011;65739;51.482;5.702;2023-05-29T13:58:30;6.88;;;2.10;;
76786;SDS011;65739;51.482;5.702;2023-05-29T14:00:55;6.80;;;1.88;;
76786;SDS011;65739;51.482;5.702;2023-05-29T14:03:21;7.32;;;2.10;;
76786;SDS011;65739;51.482;5.702;2023-05-29T14:05:53;11.05;;;2.45;;
76786;SDS011;65739;51.482;5.702;2023-05-29T14:08:21;8.05;;;2.28;;
76786;SDS011;65739;51.482;5.702;2023-05-29T14:10:47;8.20;;;2.20;;
76786;SDS011;65739;51.482;5.702;2023-05-29T14:13:12;9.05;;;2.20;;
76786;SDS011;65739;51.482;5.702;2023-05-29T14:15:38;5.93;;;2.03;;
76786;SDS011;65739;51.482;5.702;2023-05-29T14:18:04;10.23;;;2.13;;
76786;SDS011;65739;51.482;5.702;2023-05-29T14:20:30;6.97;;;2.60;;
76786;SDS011;65739;51.482;5.702;2023-05-29T14:22:55;8.75;;;2.30;;
76786;SDS011;65739;51.482;5.702;2023-05-29T14:25:21;11.82;;;3.10;;
76786;SDS011;65739;51.482;5.702;2023-05-29T14:27:47;10.77;;;2.55;;
76786;SDS011;65739;51.482;5.702;2023-05-29T14:30:12;8.82;;;2.42;;
76786;SDS011;65739;51.482;5.702;2023-05-29T14:32:38;10.20;;;2.40;;
76786;SDS011;65739;51.482;5.702;2023-05-29T14:35:04;11.48;;;2.10;;
76786;SDS011;65739;51.482;5.702;2023-05-29T14:37:29;6.85;;;2.20;;
76786;SDS011;65739;51.482;5.702;2023-05-29T14:39:55;14.30;;;2.70;;
76786;SDS011;65739;51.482;5.702;2023-05-29T14:42:21;8.50;;;2.40;;
76786;SDS011;65739;51.482;5.702;2023-05-29T14:44:46;9.43;;;2.38;;
76786;SDS011;65739;51.482;5.702;2023-05-29T14:47:12;7.90;;;2.40;;
76786;SDS011;65739;51.482;5.702;2023-05-29T14:49:38;11.50;;;2.47;;
76786;SDS011;65739;51.482;5.702;2023-05-29T14:52:04;7.10;;;2.58;;
76786;SDS011;65739;51.482;5.702;2023-05-29T14:54:30;5.53;;;2.20;;
76786;SDS011;65739;51.482;5.702;2023-05-29T14:56:55;8.60;;;1.92;;
76786;SDS011;65739;51.482;5.702;2023-05-29T14:59:22;6.82;;;2.20;;
76786;SDS011;65739;51.482;5.702;2023-05-29T15:01:48;5.55;;;2.08;;
76786;SDS011;65739;51.482;5.702;2023-05-29T15:04:15;10.02;;;2.53;;
76786;SDS011;65739;51.482;5.702;2023-05-29T15:06:41;8.02;;;2.58;;
76786;SDS011;65739;51.482;5.702;2023-05-29T15:09:06;9.82;;;2.30;;
76786;SDS011;65739;51.482;5.702;2023-05-29T15:11:32;8.65;;;2.10;;
76786;SDS011;65739;51.482;5.702;2023-05-29T15:13:57;10.55;;;2.58;;
76786;SDS011;65739;51.482;5.702;2023-05-29T15:16:23;11.13;;;2.45;;
76786;SDS011;65739;51.482;5.702;2023-05-29T15:18:49;7.53;;;2.38;;
76786;SDS011;65739;51.482;5.702;2023-05-29T15:21:15;7.22;;;2.55;;
76786;SDS011;65739;51.482;5.702;2023-05-29T15:23:40;10.27;;;2.58;;
76786;SDS011;65739;51.482;5.702;2023-05-29T15:26:08;7.53;;;2.30;;
76786;SDS011;65739;51.482;5.702;2023-05-29T15:28:34;13.45;;;2.85;;
76786;SDS011;65739;51.482;5.702;2023-05-29T15:31:00;8.82;;;2.63;;